createdAt,value
2023-11-04T00:00:56.006Z,2.33
2023-11-04T00:03:29.857Z,2.43
2023-11-04T00:05:57.149Z,2.20
2023-11-04T00:08:24.292Z,2.40
2023-11-04T00:10:51.452Z,2.97
2023-11-04T00:13:18.939Z,2.30
2023-11-04T00:15:46.410Z,2.60
2023-11-04T00:18:14.170Z,2.40
2023-11-04T00:20:46.119Z,1.90
2023-11-04T00:23:19.186Z,2.90
2023-11-04T00:25:46.569Z,2.23
2023-11-04T00:28:13.843Z,2.73
2023-11-04T00:30:41.111Z,2.20
2023-11-04T00:33:08.582Z,2.27
2023-11-04T00:35:35.887Z,2.00
2023-11-04T00:38:03.257Z,2.50
2023-11-04T00:40:30.598Z,2.27
2023-11-04T00:42:58.034Z,2.17
2023-11-04T00:45:25.226Z,2.27
2023-11-04T00:47:52.469Z,2.23
2023-11-04T00:50:21.449Z,2.10
2023-11-04T00:52:49.687Z,2.07
2023-11-04T00:55:18.888Z,2.30
2023-11-04T00:57:46.475Z,2.20
2023-11-04T01:00:14.713Z,2.53
2023-11-04T01:02:42.199Z,2.20
2023-11-04T01:05:09.529Z,2.50
2023-11-04T01:07:36.871Z,2.20
2023-11-04T01:10:04.342Z,2.23
2023-11-04T01:12:31.644Z,1.83
2023-11-04T01:14:59.102Z,2.03
2023-11-04T01:17:26.471Z,1.77
2023-11-04T01:19:53.693Z,1.90
2023-11-04T01:22:21.106Z,1.77
2023-11-04T01:24:48.429Z,2.10
2023-11-04T01:27:16.055Z,2.30
2023-11-04T01:29:43.600Z,2.37
2023-11-04T01:32:10.926Z,2.33
2023-11-04T01:34:38.167Z,2.33
2023-11-04T01:37:05.586Z,2.10
2023-11-04T01:39:35.004Z,2.40
2023-11-04T01:42:07.256Z,2.10
2023-11-04T01:44:34.905Z,2.00
2023-11-04T01:47:02.193Z,2.37
2023-11-04T01:49:29.854Z,1.97
2023-11-04T01:51:58.469Z,2.00
2023-11-04T01:54:27.212Z,2.83
2023-11-04T01:56:55.487Z,2.10
2023-11-04T01:59:24.413Z,2.40
2023-11-04T02:01:51.850Z,2.40
2023-11-04T02:04:19.690Z,2.37
2023-11-04T02:06:47.198Z,2.40
2023-11-04T02:09:14.724Z,2.13
2023-11-04T02:11:42.226Z,2.23
2023-11-04T02:14:10.936Z,2.27
2023-11-04T02:16:38.272Z,1.90
2023-11-04T02:19:06.713Z,2.00
2023-11-04T02:21:34.504Z,2.40
2023-11-04T02:24:01.957Z,2.10
2023-11-04T02:26:29.662Z,2.00
2023-11-04T02:28:58.442Z,1.90
2023-11-04T02:31:25.788Z,2.07
2023-11-04T02:33:53.309Z,2.27
2023-11-04T02:36:20.712Z,2.20
2023-11-04T02:38:48.522Z,2.17
2023-11-04T02:41:15.843Z,2.40
2023-11-04T02:43:43.014Z,2.30
2023-11-04T02:46:10.314Z,2.40
2023-11-04T02:48:37.948Z,2.30
2023-11-04T02:51:05.804Z,2.40
2023-11-04T02:53:33.101Z,2.43
2023-11-04T02:56:00.287Z,2.70
2023-11-04T02:58:27.950Z,2.50
2023-11-04T03:00:55.130Z,2.33
2023-11-04T03:03:22.445Z,2.73
2023-11-04T03:05:49.775Z,2.70
2023-11-04T03:08:16.976Z,2.17
2023-11-04T03:10:44.292Z,2.53
2023-11-04T03:13:12.420Z,2.60
2023-11-04T03:15:39.802Z,2.50
2023-11-04T03:18:07.045Z,2.60
2023-11-04T03:20:34.517Z,2.20
2023-11-04T03:23:01.758Z,2.60
2023-11-04T03:25:28.927Z,2.80
2023-11-04T03:27:56.232Z,2.73
2023-11-04T03:30:23.707Z,2.47
2023-11-04T03:32:51.038Z,2.50
2023-11-04T03:35:18.230Z,2.50
2023-11-04T03:37:45.553Z,2.70
2023-11-04T03:40:13.614Z,2.77
2023-11-04T03:42:40.839Z,2.50
2023-11-04T03:45:08.043Z,2.47
2023-11-04T03:47:35.333Z,3.00
2023-11-04T03:50:03.117Z,2.77
2023-11-04T03:52:30.252Z,3.00
2023-11-04T03:54:57.649Z,3.33
2023-11-04T03:57:24.984Z,3.60
2023-11-04T03:59:53.117Z,3.07
2023-11-04T04:02:20.363Z,3.60
2023-11-04T04:04:47.647Z,3.27
2023-11-04T04:07:14.843Z,4.00
2023-11-04T04:09:42.300Z,4.13
2023-11-04T04:12:09.869Z,4.10
2023-11-04T04:14:37.017Z,5.60
2023-11-04T04:17:04.208Z,5.00
2023-11-04T04:19:31.512Z,5.43
2023-11-04T04:21:58.728Z,6.60
2023-11-04T04:24:25.833Z,6.53
2023-11-04T04:26:52.963Z,6.37
2023-11-04T04:29:25.078Z,6.60
2023-11-04T04:31:54.932Z,6.30
2023-11-04T04:34:23.177Z,6.07
2023-11-04T04:36:50.546Z,6.40
2023-11-04T04:39:19.412Z,6.47
2023-11-04T04:41:46.591Z,6.33
2023-11-04T04:44:13.698Z,6.23
2023-11-04T04:46:40.939Z,6.77
2023-11-04T04:49:09.101Z,6.13
2023-11-04T04:51:39.280Z,6.27
2023-11-04T04:54:06.698Z,7.43
2023-11-04T04:56:33.833Z,7.63
2023-11-04T04:59:01.030Z,7.23
2023-11-04T05:01:28.429Z,7.43
2023-11-04T05:03:55.652Z,6.80
2023-11-04T05:06:23.140Z,7.70
2023-11-04T05:08:50.435Z,7.90
2023-11-04T05:11:17.807Z,7.17
2023-11-04T05:13:44.900Z,7.00
2023-11-04T05:16:12.080Z,7.90
2023-11-04T05:18:39.389Z,7.10
2023-11-04T05:21:07.011Z,8.37
2023-11-04T05:23:34.117Z,8.73
2023-11-04T05:26:01.293Z,8.60
2023-11-04T05:28:28.666Z,7.70
2023-11-04T05:30:56.744Z,6.73
2023-11-04T05:33:24.151Z,6.63
2023-11-04T05:35:51.512Z,6.93
2023-11-04T05:38:18.954Z,6.70
2023-11-04T05:40:46.784Z,7.33
2023-11-04T05:43:13.967Z,6.73
2023-11-04T05:45:41.165Z,6.60
2023-11-04T05:48:09.712Z,7.37
2023-11-04T05:50:37.098Z,6.90
2023-11-04T05:53:05.059Z,6.50
2023-11-04T05:55:32.230Z,6.20
2023-11-04T05:58:00.147Z,8.33
2023-11-04T06:00:27.560Z,6.80
2023-11-04T06:02:54.714Z,6.40
2023-11-04T06:05:21.956Z,6.57
2023-11-04T06:07:49.459Z,5.90
2023-11-04T06:10:17.228Z,6.40
2023-11-04T06:12:44.699Z,7.00
2023-11-04T06:15:12.293Z,6.33
2023-11-04T06:17:40.181Z,5.50
2023-11-04T06:20:08.068Z,6.43
2023-11-04T06:22:35.465Z,6.53
2023-11-04T06:25:04.190Z,6.40
2023-11-04T06:27:32.368Z,5.90
2023-11-04T06:29:59.509Z,7.00
2023-11-04T06:32:26.649Z,6.23
2023-11-04T06:34:53.652Z,6.70
2023-11-04T06:37:20.681Z,7.50
2023-11-04T06:39:47.826Z,6.57
2023-11-04T06:42:19.903Z,6.77
2023-11-04T06:44:47.124Z,7.57
2023-11-04T06:47:14.217Z,7.63
2023-11-04T06:49:41.324Z,7.70
2023-11-04T06:52:09.061Z,7.97
2023-11-04T06:54:36.186Z,9.23
2023-11-04T06:57:04.273Z,7.83
2023-11-04T06:59:31.437Z,7.60
2023-11-04T07:01:58.909Z,8.40
2023-11-04T07:04:26.076Z,8.87
2023-11-04T07:06:53.638Z,7.57
2023-11-04T07:09:21.250Z,7.63
2023-11-04T07:11:48.706Z,8.60
2023-11-04T07:14:17.762Z,7.67
2023-11-04T07:16:46.298Z,7.57
2023-11-04T07:19:15.226Z,7.60
2023-11-04T07:21:43.406Z,8.27
2023-11-04T07:24:10.495Z,7.97
2023-11-04T07:26:37.719Z,8.37
2023-11-04T07:29:05.078Z,8.30
2023-11-04T07:31:32.992Z,8.77
2023-11-04T07:34:00.179Z,9.60
2023-11-04T07:36:28.189Z,9.80
2023-11-04T07:38:55.417Z,10.23
2023-11-04T07:41:22.521Z,9.70
2023-11-04T07:43:52.540Z,9.87
2023-11-04T07:46:19.988Z,10.17
2023-11-04T07:48:47.636Z,11.87
2023-11-04T07:51:15.077Z,11.73
2023-11-04T07:53:42.707Z,10.90
2023-11-04T07:56:11.517Z,10.17
2023-11-04T07:58:38.828Z,8.93
2023-11-04T08:01:07.190Z,8.10
2023-11-04T08:03:34.444Z,7.63
2023-11-04T08:06:01.706Z,7.10
2023-11-04T08:08:28.895Z,6.47
2023-11-04T08:10:56.907Z,6.27
2023-11-04T08:13:25.427Z,5.37
2023-11-04T08:15:52.560Z,4.70
2023-11-04T08:18:19.785Z,4.18
2023-11-04T08:20:48.623Z,3.87
2023-11-04T08:23:15.847Z,3.42
2023-11-04T08:25:42.946Z,4.05
2023-11-04T08:28:10.300Z,3.40
2023-11-04T08:30:37.515Z,3.90
2023-11-04T08:33:05.753Z,3.08
2023-11-04T08:35:32.890Z,3.42
2023-11-04T08:37:59.989Z,3.33
2023-11-04T08:40:27.088Z,3.05
2023-11-04T08:42:55.074Z,3.03
2023-11-04T08:45:22.467Z,2.92
2023-11-04T08:47:55.682Z,2.85
2023-11-04T08:50:23.016Z,2.20
2023-11-04T08:52:50.111Z,2.30
2023-11-04T08:55:17.336Z,3.05
2023-11-04T08:57:45.682Z,2.72
2023-11-04T09:00:13.614Z,3.05
2023-11-04T09:02:40.700Z,2.25
2023-11-04T09:05:13.379Z,2.05
2023-11-04T09:07:45.053Z,2.63
2023-11-04T09:10:12.455Z,2.83
2023-11-04T09:12:43.103Z,2.42
2023-11-04T09:15:11.903Z,2.17
2023-11-04T09:17:43.269Z,1.95
2023-11-04T09:20:11.212Z,2.20
2023-11-04T09:22:39.160Z,2.20
2023-11-04T09:25:07.437Z,2.03
2023-11-04T09:27:34.634Z,1.80
2023-11-04T09:30:01.918Z,1.60
2023-11-04T09:32:29.085Z,2.13
2023-11-04T09:34:57.653Z,1.73
2023-11-04T09:37:24.902Z,1.60
2023-11-04T09:39:52.671Z,1.85
2023-11-04T09:42:19.902Z,1.58
2023-11-04T09:44:47.226Z,1.55
2023-11-04T09:47:14.447Z,1.50
2023-11-04T09:49:41.534Z,1.67
2023-11-04T09:52:11.620Z,1.85
2023-11-04T09:54:40.297Z,1.38
2023-11-04T09:57:07.699Z,1.40
2023-11-04T09:59:35.580Z,1.20
2023-11-04T10:02:03.110Z,1.10
2023-11-04T10:04:30.573Z,1.20
2023-11-04T10:06:58.222Z,1.45
2023-11-04T10:09:25.265Z,1.30
2023-11-04T10:11:52.389Z,1.40
2023-11-04T10:14:19.443Z,1.55
2023-11-04T10:16:46.968Z,1.20
2023-11-04T10:19:15.040Z,1.55
2023-11-04T10:21:42.869Z,0.95
2023-11-04T10:24:10.366Z,1.38
2023-11-04T10:26:37.882Z,1.20
2023-11-04T10:29:05.981Z,1.15
2023-11-04T10:31:34.735Z,1.10
2023-11-04T10:34:02.813Z,1.42
2023-11-04T10:36:35.006Z,1.17
2023-11-04T10:39:05.151Z,1.20
2023-11-04T10:42:04.386Z,1.30
2023-11-04T10:44:37.480Z,1.48
2023-11-04T10:47:17.496Z,1.30
2023-11-04T10:49:59.066Z,1.15
2023-11-04T10:52:30.953Z,1.13
2023-11-04T10:55:08.772Z,1.40
2023-11-04T10:57:47.850Z,1.45
2023-11-04T11:00:21.431Z,2.35
2023-11-04T11:02:52.450Z,1.23
2023-11-04T11:05:25.646Z,1.00
2023-11-04T11:07:53.662Z,1.20
2023-11-04T11:10:26.245Z,0.98
2023-11-04T11:13:00.128Z,1.27
2023-11-04T11:15:29.315Z,1.20
2023-11-04T11:18:03.220Z,1.20
2023-11-04T11:20:32.174Z,1.27
2023-11-04T11:23:01.414Z,1.25
2023-11-04T11:25:41.637Z,1.10
2023-11-04T11:28:24.594Z,1.17
2023-11-04T11:30:57.045Z,0.80
2023-11-04T11:33:31.396Z,0.88
2023-11-04T11:36:12.227Z,1.08
2023-11-04T11:38:46.465Z,1.15
2023-11-04T11:41:15.506Z,1.20
2023-11-04T11:43:48.417Z,0.60
2023-11-04T11:46:15.787Z,1.10
2023-11-04T11:48:45.707Z,1.00
2023-11-04T11:51:14.623Z,0.65
2023-11-04T11:53:44.984Z,0.82
2023-11-04T11:56:12.987Z,0.90
2023-11-04T11:58:40.619Z,0.70
2023-11-04T12:01:10.187Z,0.80
2023-11-04T12:03:38.248Z,0.82
2023-11-04T12:06:06.494Z,1.00
2023-11-04T12:08:34.007Z,0.68
2023-11-04T12:11:04.895Z,0.82
2023-11-04T12:13:31.964Z,1.00
2023-11-04T12:16:00.872Z,1.00
2023-11-04T12:18:28.891Z,0.80
2023-11-04T12:20:56.276Z,0.90
2023-11-04T12:23:28.871Z,1.00
2023-11-04T12:25:58.248Z,1.27
2023-11-04T12:28:27.997Z,1.23
2023-11-04T12:31:05.630Z,1.00
2023-11-04T12:33:35.723Z,0.90
2023-11-04T12:36:07.577Z,0.90
2023-11-04T12:38:35.622Z,0.80
2023-11-04T12:41:04.153Z,0.85
2023-11-04T12:43:31.502Z,0.80
2023-11-04T12:46:00.481Z,1.13
2023-11-04T12:48:28.547Z,0.85
2023-11-04T12:50:56.051Z,0.90
2023-11-04T12:53:26.434Z,0.80
2023-11-04T12:55:55.678Z,0.80
2023-11-04T12:58:23.149Z,1.00
2023-11-04T13:00:50.403Z,0.82
2023-11-04T13:03:18.421Z,0.88
2023-11-04T13:05:46.097Z,0.90
2023-11-04T13:08:13.512Z,1.00
2023-11-04T13:10:40.658Z,0.82
2023-11-04T13:13:07.992Z,0.90
2023-11-04T13:15:35.528Z,0.90
2023-11-04T13:18:02.661Z,1.00
2023-11-04T13:20:30.421Z,0.93
2023-11-04T13:22:57.608Z,1.10
2023-11-04T13:25:24.635Z,1.40
2023-11-04T13:27:51.788Z,0.98
2023-11-04T13:30:18.938Z,0.80
2023-11-04T13:32:46.288Z,0.77
2023-11-04T13:35:15.951Z,0.90
2023-11-04T13:37:44.668Z,0.88
2023-11-04T13:40:12.677Z,0.90
2023-11-04T13:42:39.902Z,1.00
2023-11-04T13:45:08.213Z,0.95
2023-11-04T13:47:38.518Z,1.10
2023-11-04T13:50:09.641Z,0.82
2023-11-04T13:52:36.810Z,1.10
2023-11-04T13:55:04.582Z,0.98
2023-11-04T13:57:35.937Z,1.13
2023-11-04T14:00:03.217Z,1.23
2023-11-04T14:02:30.792Z,0.73
2023-11-04T14:05:00.051Z,1.00
2023-11-04T14:07:28.356Z,0.80
2023-11-04T14:09:55.440Z,0.70
2023-11-04T14:12:23.818Z,0.60
2023-11-04T14:14:53.115Z,0.80
2023-11-04T14:17:20.309Z,1.00
2023-11-04T14:19:47.601Z,1.02
2023-11-04T14:22:14.915Z,0.80
2023-11-04T14:24:42.663Z,0.73
2023-11-04T14:27:10.504Z,1.23
2023-11-04T14:29:38.985Z,1.08
2023-11-04T14:32:07.816Z,1.17
2023-11-04T14:34:35.322Z,1.20
2023-11-04T14:37:02.462Z,0.90
2023-11-04T14:39:30.058Z,1.05
2023-11-04T14:41:57.290Z,0.98
2023-11-04T14:44:24.698Z,0.80
2023-11-04T14:46:51.999Z,0.88
2023-11-04T14:49:19.380Z,0.90
2023-11-04T14:51:46.832Z,0.90
2023-11-04T14:54:13.913Z,1.30
2023-11-04T14:56:41.209Z,0.80
2023-11-04T14:59:08.540Z,0.90
2023-11-04T15:01:57.160Z,0.80
2023-11-04T15:04:25.441Z,1.20
2023-11-04T15:06:53.346Z,1.00
2023-11-04T15:09:23.405Z,1.25
2023-11-04T15:11:51.466Z,1.38
2023-11-04T15:14:19.442Z,1.17
2023-11-04T15:16:47.169Z,1.55
2023-11-04T15:19:14.755Z,1.08
2023-11-04T15:21:48.960Z,1.27
2023-11-04T15:24:16.447Z,2.05
2023-11-04T15:26:44.109Z,1.63
2023-11-04T15:29:11.683Z,1.50
2023-11-04T15:31:43.612Z,1.40
2023-11-04T15:34:11.618Z,1.42
2023-11-04T15:36:39.161Z,1.00
2023-11-04T15:39:08.184Z,1.30
2023-11-04T15:41:39.386Z,1.23
2023-11-04T15:44:07.549Z,1.57
2023-11-04T15:46:35.022Z,1.40
2023-11-04T15:49:03.102Z,1.23
2023-11-04T15:51:31.448Z,1.40
2023-11-04T15:53:59.584Z,1.77
2023-11-04T15:56:30.315Z,1.70
2023-11-04T15:58:58.081Z,1.37
2023-11-04T16:01:26.361Z,1.07
2023-11-04T16:03:53.938Z,1.10
2023-11-04T16:06:21.303Z,1.10
2023-11-04T16:08:52.682Z,0.87
2023-11-04T16:11:20.526Z,1.37
2023-11-04T16:13:48.216Z,1.20
2023-11-04T16:16:15.612Z,1.25
2023-11-04T16:18:50.228Z,1.30
2023-11-04T16:21:18.956Z,1.10
2023-11-04T16:23:46.440Z,1.20
2023-11-04T16:26:14.632Z,1.30
2023-11-04T16:28:45.146Z,1.57
2023-11-04T16:31:23.879Z,1.20
2023-11-04T16:33:53.127Z,1.23
2023-11-04T16:36:21.020Z,0.85
2023-11-04T16:38:48.364Z,1.02
2023-11-04T16:41:18.582Z,1.10
2023-11-04T16:43:56.756Z,0.90
2023-11-04T16:46:25.394Z,1.10
2023-11-04T16:48:53.670Z,1.00
2023-11-04T16:51:22.661Z,0.90
2023-11-04T16:53:50.147Z,1.27
2023-11-04T16:56:17.392Z,1.03
2023-11-04T16:58:45.138Z,1.07
2023-11-04T17:01:15.507Z,0.90
2023-11-04T17:03:44.267Z,0.95
2023-11-04T17:06:11.933Z,1.00
2023-11-04T17:08:42.242Z,0.80
2023-11-04T17:11:10.649Z,0.70
2023-11-04T17:13:44.180Z,1.40
2023-11-04T17:16:14.114Z,1.30
2023-11-04T17:18:42.819Z,0.90
2023-11-04T17:21:10.462Z,0.90
2023-11-04T17:23:41.624Z,1.15
2023-11-04T17:26:10.426Z,1.75
2023-11-04T17:28:38.924Z,0.70
2023-11-04T17:31:07.699Z,0.90
2023-11-04T17:33:35.303Z,1.42
2023-11-04T17:36:07.299Z,0.93
2023-11-04T17:38:35.959Z,0.90
2023-11-04T17:41:03.666Z,1.08
2023-11-04T17:43:31.556Z,0.90
2023-11-04T17:45:59.200Z,1.15
2023-11-04T17:48:30.207Z,1.08
2023-11-04T17:50:59.402Z,3.58
2023-11-04T17:53:29.725Z,2.22
2023-11-04T17:55:57.246Z,0.90
2023-11-04T17:58:25.701Z,1.30
2023-11-04T18:00:53.254Z,1.10
2023-11-04T18:03:21.584Z,2.13
2023-11-04T18:05:49.004Z,1.63
2023-11-04T18:08:16.224Z,1.35
2023-11-04T18:10:43.395Z,1.50
2023-11-04T18:13:10.550Z,2.10
2023-11-04T18:15:37.668Z,1.08
2023-11-04T18:18:05.141Z,1.83
2023-11-04T18:20:32.330Z,0.98
2023-11-04T18:22:59.874Z,3.05
2023-11-04T18:25:30.743Z,1.20
2023-11-04T18:28:04.518Z,1.73
2023-11-04T18:30:33.888Z,1.00
2023-11-04T18:33:01.400Z,1.25
2023-11-04T18:35:28.906Z,0.95
2023-11-04T18:37:56.497Z,0.70
2023-11-04T18:40:23.666Z,0.90
2023-11-04T18:42:50.892Z,1.23
2023-11-04T18:45:18.439Z,0.85
2023-11-04T18:47:45.909Z,0.98
2023-11-04T18:50:13.034Z,0.88
2023-11-04T18:52:40.266Z,0.93
2023-11-04T18:55:07.748Z,0.82
2023-11-04T18:57:35.404Z,0.93
2023-11-04T19:00:02.589Z,0.95
2023-11-04T19:02:29.851Z,0.88
2023-11-04T19:04:56.989Z,1.00
2023-11-04T19:07:24.163Z,0.93
2023-11-04T19:09:51.290Z,1.13
2023-11-04T19:12:18.523Z,1.00
2023-11-04T19:14:45.617Z,0.80
2023-11-04T19:17:12.790Z,1.00
2023-11-04T19:19:40.220Z,0.90
2023-11-04T19:22:07.394Z,0.97
2023-11-04T19:24:34.551Z,0.70
2023-11-04T19:27:01.695Z,0.80
2023-11-04T19:29:28.894Z,0.77
2023-11-04T19:31:56.010Z,0.93
2023-11-04T19:34:23.212Z,0.80
2023-11-04T19:36:51.398Z,0.90
2023-11-04T19:39:18.579Z,0.82
2023-11-04T19:41:45.912Z,0.75
2023-11-04T19:44:13.029Z,0.80
2023-11-04T19:46:45.173Z,1.00
2023-11-04T19:49:12.569Z,0.80
2023-11-04T19:51:39.846Z,1.10
2023-11-04T19:54:07.000Z,0.68
2023-11-04T19:56:35.285Z,0.70
2023-11-04T19:59:02.427Z,0.75
2023-11-04T20:01:31.058Z,0.75
2023-11-04T20:03:58.653Z,0.80
2023-11-04T20:06:25.953Z,0.93
2023-11-04T20:08:53.023Z,0.85
2023-11-04T20:11:24.652Z,0.82
2023-11-04T20:13:52.119Z,0.80
2023-11-04T20:16:20.159Z,0.98
2023-11-04T20:18:47.595Z,1.42
2023-11-04T20:21:14.869Z,0.80
2023-11-04T20:23:42.034Z,0.80
2023-11-04T20:26:09.184Z,0.85
2023-11-04T20:28:36.361Z,0.85
2023-11-04T20:31:04.182Z,0.60
2023-11-04T20:33:31.423Z,0.70
2023-11-04T20:35:58.652Z,0.70
2023-11-04T20:38:25.800Z,0.90
2023-11-04T20:40:52.881Z,1.05
2023-11-04T20:43:20.100Z,0.77
2023-11-04T20:45:47.285Z,0.63
2023-11-04T20:48:14.529Z,0.68
2023-11-04T20:50:41.693Z,0.73
2023-11-04T20:53:08.869Z,0.60
2023-11-04T20:55:35.934Z,0.70
2023-11-04T20:58:03.264Z,0.70
2023-11-04T21:00:30.701Z,0.90
2023-11-04T21:02:59.894Z,0.80
2023-11-04T21:05:27.035Z,0.73
2023-11-04T21:07:54.311Z,0.60
2023-11-04T21:10:22.661Z,0.80
2023-11-04T21:12:50.946Z,0.60
2023-11-04T21:15:18.244Z,0.60
2023-11-04T21:17:45.970Z,0.70
2023-11-04T21:20:13.863Z,0.60
2023-11-04T21:22:41.067Z,0.50
2023-11-04T21:25:10.124Z,0.50
2023-11-04T21:27:40.330Z,0.80
2023-11-04T21:30:08.577Z,0.73
2023-11-04T21:32:36.230Z,0.50
2023-11-04T21:35:04.721Z,0.60
2023-11-04T21:37:31.985Z,0.65
2023-11-04T21:39:59.250Z,0.70
2023-11-04T21:42:26.402Z,0.65
2023-11-04T21:44:53.589Z,0.50
2023-11-04T21:47:20.787Z,0.90
2023-11-04T21:49:47.879Z,0.60
2023-11-04T21:52:15.853Z,0.40
2023-11-04T21:54:43.055Z,0.55
2023-11-04T21:57:10.205Z,0.68
2023-11-04T21:59:37.330Z,0.55
2023-11-04T22:02:04.600Z,1.05
2023-11-04T22:04:31.832Z,0.70
2023-11-04T22:06:59.147Z,0.55
2023-11-04T22:09:26.245Z,0.63
2023-11-04T22:11:54.497Z,0.57
2023-11-04T22:14:21.652Z,0.68
2023-11-04T22:16:48.818Z,0.63
2023-11-04T22:19:16.130Z,0.47
2023-11-04T22:21:43.404Z,0.50
2023-11-04T22:24:10.665Z,0.50
2023-11-04T22:26:40.775Z,0.63
2023-11-04T22:29:08.775Z,0.50
2023-11-04T22:31:35.833Z,0.52
2023-11-04T22:34:03.437Z,0.70
2023-11-04T22:36:30.809Z,0.40
2023-11-04T22:38:57.892Z,0.65
2023-11-04T22:41:25.010Z,0.65
2023-11-04T22:43:52.224Z,0.52
2023-11-04T22:46:19.414Z,0.60
2023-11-04T22:48:46.677Z,0.82
2023-11-04T22:51:13.881Z,1.10
2023-11-04T22:53:41.023Z,0.40
2023-11-04T22:56:08.446Z,0.50
2023-11-04T22:58:35.659Z,0.50
2023-11-04T23:01:02.905Z,0.52
2023-11-04T23:03:30.128Z,0.60
2023-11-04T23:05:57.381Z,0.82
2023-11-04T23:08:24.599Z,0.63
2023-11-04T23:10:53.037Z,1.00
2023-11-04T23:13:20.722Z,1.85
2023-11-04T23:15:48.387Z,0.77
2023-11-04T23:18:16.004Z,0.68
2023-11-04T23:20:43.461Z,0.60
2023-11-04T23:23:12.557Z,0.50
2023-11-04T23:25:40.743Z,0.60
2023-11-04T23:28:08.927Z,0.45
2023-11-04T23:30:36.200Z,0.50
2023-11-04T23:33:03.792Z,0.70
2023-11-04T23:35:31.716Z,0.50
2023-11-04T23:37:58.878Z,0.50
2023-11-04T23:40:26.546Z,0.50
2023-11-04T23:42:53.708Z,0.57
2023-11-04T23:45:22.356Z,0.45
2023-11-04T23:47:49.647Z,0.85
2023-11-04T23:50:16.936Z,0.70
2023-11-04T23:52:44.169Z,3.03
2023-11-04T23:55:11.474Z,2.50
2023-11-04T23:57:38.875Z,3.00
